Time;durP1;ratioP1;P1;durP2;ratioP2;P2;SDS_P1;SDS_P2;PMS_P1;PMS_P2;Temp;Humidity;BMP_temperature;BMP_pressure;BME280_temperature;BME280_humidity;BME280_pressure;Samples;Min_cycle;Max_cycle;Signal;HPM_P1;HPM_P2
2024/02/26 00:02:18;;;;;;;10.20;3.10;;;;;;;7.89;47.50;100976.55;104516;1265;59762;-58
2024/02/26 00:04:46;;;;;;;7.50;2.70;;;;;;;7.85;47.58;100975.76;104449;1271;64233;-58
2024/02/26 00:07:14;;;;;;;9.10;3.90;;;;;;;7.83;47.56;100977.25;105311;1269;60260;-58
2024/02/26 00:09:42;;;;;;;15.50;7.20;;;;;;;7.81;47.60;100966.54;104430;1266;64292;-59
2024/02/26 00:12:10;;;;;;;8.30;2.50;;;;;;;7.79;47.77;100964.89;105453;1272;59718;-58
2024/02/26 00:14:38;;;;;;;8.30;2.50;;;;;;;7.76;47.77;100960.40;104866;1266;59694;-59
2024/02/26 00:17:05;;;;;;;11.60;3.70;;;;;;;7.73;47.99;100948.32;104998;1257;65035;-60
2024/02/26 00:19:35;;;;;;;20.60;8.30;;;;;;;7.72;47.97;100943.73;105603;1257;60223;-58
2024/02/26 00:22:03;;;;;;;13.50;3.20;;;;;;;7.69;48.07;100948.74;105529;1256;63799;-59
2024/02/26 00:24:30;;;;;;;11.00;4.40;;;;;;;7.66;48.17;100947.17;105189;1254;59737;-58
2024/02/26 00:26:59;;;;;;;11.80;3.40;;;;;;;7.65;48.21;100943.05;105202;1253;60584;-60
2024/02/26 00:29:26;;;;;;;15.10;4.20;;;;;;;7.64;48.26;100939.10;106628;1253;62969;-61
2024/02/26 00:31:54;;;;;;;9.60;3.70;;;;;;;7.62;48.37;100938.98;105322;1253;61521;-60
2024/02/26 00:34:22;;;;;;;24.30;10.00;;;;;;;7.61;48.48;100937.16;105215;1254;63816;-60
2024/02/26 00:36:50;;;;;;;12.80;4.60;;;;;;;7.59;48.55;100937.61;104984;1253;59705;-60
2024/02/26 00:39:17;;;;;;;9.90;3.60;;;;;;;7.55;48.59;100935.56;105194;1254;59673;-59
2024/02/26 00:41:47;;;;;;;14.10;3.70;;;;;;;7.52;48.66;100928.80;105326;1254;73845;-59
2024/02/26 00:44:15;;;;;;;8.20;3.00;;;;;;;7.48;48.76;100926.24;105267;1259;60245;-60
2024/02/26 00:46:42;;;;;;;8.60;3.30;;;;;;;7.43;48.87;100928.23;105118;1260;64009;-58
2024/02/26 00:49:10;;;;;;;7.90;2.70;;;;;;;7.41;48.96;100926.97;105520;1254;60925;-60
2024/02/26 00:51:38;;;;;;;10.50;6.10;;;;;;;7.39;49.06;100926.75;105128;1256;59644;-61
2024/02/26 00:54:06;;;;;;;8.50;2.20;;;;;;;7.38;49.13;100923.66;105429;1253;62923;-59
2024/02/26 00:56:33;;;;;;;6.40;2.00;;;;;;;7.37;49.10;100921.09;105200;1253;62183;-62
2024/02/26 00:59:01;;;;;;;4.50;1.70;;;;;;;7.37;49.18;100920.58;106054;1257;62506;-64
2024/02/26 01:01:29;;;;;;;7.10;2.70;;;;;;;7.37;49.30;100923.55;105828;1258;59756;-63
2024/02/26 01:03:57;;;;;;;7.80;3.00;;;;;;;7.36;49.33;100919.39;106825;1253;59749;-62
2024/02/26 01:06:25;;;;;;;6.20;2.70;;;;;;;7.37;49.36;100919.18;105134;1253;62897;-63
2024/02/26 01:08:53;;;;;;;7.70;2.40;;;;;;;7.38;49.32;100915.80;105848;1257;60257;-62
2024/02/26 01:11:20;;;;;;;6.70;2.80;;;;;;;7.38;49.25;100926.63;105345;1257;62499;-60
2024/02/26 01:13:49;;;;;;;6.50;2.20;;;;;;;7.37;49.16;100932.63;105263;1253;59639;-58
2024/02/26 01:16:17;;;;;;;11.10;2.50;;;;;;;7.37;49.25;100936.66;105954;1253;60845;-59
2024/02/26 01:18:44;;;;;;;7.60;2.40;;;;;;;7.38;49.31;100935.00;105260;1254;62904;-57
2024/02/26 01:21:12;;;;;;;8.40;3.00;;;;;;;7.39;49.35;100935.44;105298;1259;60223;-54
2024/02/26 01:23:40;;;;;;;10.00;2.50;;;;;;;7.40;49.45;100936.59;105227;1259;62520;-58
2024/02/26 01:26:08;;;;;;;6.50;1.70;;;;;;;7.41;49.49;100939.00;105179;1259;59734;-57
2024/02/26 01:28:36;;;;;;;6.90;2.20;;;;;;;7.41;49.57;100936.73;105422;1259;59680;-56
2024/02/26 01:31:06;;;;;;;6.00;2.00;;;;;;;7.42;49.76;100934.94;105228;1254;64322;-58
2024/02/26 01:33:34;;;;;;;6.20;2.50;;;;;;;7.43;49.88;100925.27;105536;1260;60465;-59
2024/02/26 01:36:02;;;;;;;5.20;1.90;;;;;;;7.41;49.94;100922.08;105577;1261;62524;-59
2024/02/26 01:38:30;;;;;;;7.80;2.20;;;;;;;7.40;50.04;100920.27;105643;1254;59656;-58
2024/02/26 01:40:58;;;;;;;9.70;3.60;;;;;;;7.38;50.11;100921.55;105861;1253;59549;-60
2024/02/26 01:43:26;;;;;;;11.80;4.00;;;;;;;7.38;50.09;100918.91;105657;1253;63044;-58
2024/02/26 01:45:53;;;;;;;7.30;2.60;;;;;;;7.39;49.99;100916.09;105876;1259;62602;-60
2024/02/26 01:48:21;;;;;;;18.10;7.90;;;;;;;7.41;50.05;100923.97;105353;1253;63842;-59
2024/02/26 01:50:49;;;;;;;8.40;2.70;;;;;;;7.43;49.92;100928.59;105148;1259;60521;-57
2024/02/26 01:53:17;;;;;;;9.80;3.00;;;;;;;7.43;49.89;100917.44;105101;1254;59743;-58
2024/02/26 01:55:45;;;;;;;7.70;3.10;;;;;;;7.40;49.93;100910.96;105390;1258;64514;-57
2024/02/26 01:58:13;;;;;;;8.90;2.60;;;;;;;7.37;49.95;100909.73;105352;1254;61977;-58
2024/02/26 02:00:40;;;;;;;9.90;3.70;;;;;;;7.35;49.99;100903.27;105528;1253;63852;-58
2024/02/26 02:03:08;;;;;;;13.30;3.20;;;;;;;7.32;50.07;100896.42;106246;1255;59643;-59
2024/02/26 02:05:41;;;;;;;9.30;3.20;;;;;;;7.31;50.07;100890.20;105216;1253;59829;-60
2024/02/26 02:08:14;;;;;;;5.70;2.10;;;;;;;7.31;50.01;100885.19;105278;1253;63937;-58
2024/02/26 02:10:42;;;;;;;9.70;3.10;;;;;;;7.30;50.10;100889.43;105396;1254;60473;-57
2024/02/26 02:13:10;;;;;;;11.00;6.50;;;;;;;7.29;50.21;100892.95;105127;1253;63646;-59
2024/02/26 02:15:37;;;;;;;6.20;2.20;;;;;;;7.29;50.20;100895.37;105244;1254;59736;-57
2024/02/26 02:18:06;;;;;;;4.10;1.50;;;;;;;7.34;50.25;100901.35;105089;1253;59832;-58
2024/02/26 02:20:34;;;;;;;5.90;2.60;;;;;;;7.43;50.16;100905.21;105511;1254;62913;-56
2024/02/26 02:23:02;;;;;;;8.80;2.50;;;;;;;7.52;50.18;100911.34;105615;1256;60273;-55
2024/02/26 02:25:30;;;;;;;5.60;2.20;;;;;;;7.60;49.98;100911.37;105647;1259;64226;-57
2024/02/26 02:27:58;;;;;;;8.80;2.50;;;;;;;7.66;49.87;100908.10;105148;1259;59743;-57
2024/02/26 02:30:30;;;;;;;11.40;5.90;;;;;;;7.67;49.85;100908.19;105800;1253;59783;-59
2024/02/26 02:32:58;;;;;;;8.70;2.60;;;;;;;7.66;49.86;100903.69;105709;1254;64468;-60
2024/02/26 02:35:26;;;;;;;5.70;2.20;;;;;;;7.66;49.88;100907.03;105222;1253;61989;-60
2024/02/26 02:37:56;;;;;;;7.10;3.10;;;;;;;7.63;49.82;100909.27;105941;1253;63821;-59
2024/02/26 02:40:24;;;;;;;6.60;2.10;;;;;;;7.58;49.75;100907.15;105177;1255;60804;-59
2024/02/26 02:42:52;;;;;;;8.70;3.70;;;;;;;7.53;49.75;100903.75;105084;1256;59555;-58
2024/02/26 02:45:19;;;;;;;5.70;2.30;;;;;;;7.45;49.80;100896.38;105164;1254;64222;-57
2024/02/26 02:47:47;;;;;;;5.60;2.40;;;;;;;7.36;49.91;100894.27;105138;1259;60252;-57
2024/02/26 02:50:15;;;;;;;11.30;5.40;;;;;;;7.29;50.24;100890.67;105163;1259;62560;-58
2024/02/26 02:52:43;;;;;;;7.70;2.90;;;;;;;7.23;50.38;100885.94;105445;1253;59773;-57
2024/02/26 02:55:12;;;;;;;8.10;2.30;;;;;;;7.17;50.49;100881.41;105252;1260;59565;-59
2024/02/26 02:57:41;;;;;;;7.40;3.80;;;;;;;7.12;50.60;100879.62;105234;1253;62881;-59
2024/02/26 03:00:09;;;;;;;7.80;1.90;;;;;;;7.07;50.72;100882.66;105379;1253;61506;-59
2024/02/26 03:02:37;;;;;;;4.90;1.70;;;;;;;7.03;50.77;100890.75;105497;1257;62521;-59
2024/02/26 03:05:05;;;;;;;8.40;3.10;;;;;;;7.01;50.87;100889.83;105094;1253;61175;-58
2024/02/26 03:07:33;;;;;;;6.90;2.30;;;;;;;7.03;50.83;100890.92;105594;1253;60470;-57
2024/02/26 03:10:01;;;;;;;7.10;2.70;;;;;;;7.03;50.94;100900.02;105235;1254;65000;-57
2024/02/26 03:12:30;;;;;;;7.90;3.00;;;;;;;7.03;50.97;100907.34;105770;1253;61922;-57
2024/02/26 03:14:58;;;;;;;6.30;2.40;;;;;;;7.05;51.02;100917.70;105826;1254;62545;-58
2024/02/26 03:17:25;;;;;;;7.40;2.90;;;;;;;7.06;51.02;100919.86;105744;1258;60385;-60
2024/02/26 03:19:54;;;;;;;10.50;3.50;;;;;;;7.05;50.89;100922.38;105162;1253;60465;-60
2024/02/26 03:22:22;;;;;;;7.70;2.50;;;;;;;7.06;50.95;100917.95;106643;1259;65173;-57
2024/02/26 03:24:49;;;;;;;6.60;2.80;;;;;;;7.08;50.87;100921.34;105058;1260;60413;-57
2024/02/26 03:27:17;;;;;;;6.80;2.90;;;;;;;7.10;50.91;100920.36;105976;1257;62763;-57
2024/02/26 03:29:45;;;;;;;12.40;6.30;;;;;;;7.11;50.90;100920.48;105187;1253;60429;-56
2024/02/26 03:32:13;;;;;;;6.70;2.20;;;;;;;7.11;50.78;100921.04;105161;1255;60534;-57
2024/02/26 03:34:40;;;;;;;5.50;2.50;;;;;;;7.14;50.78;100926.06;105216;1253;65010;-58
2024/02/26 03:37:10;;;;;;;9.10;3.10;;;;;;;7.22;50.77;100926.13;105235;1256;61577;-59
2024/02/26 03:39:38;;;;;;;9.10;2.70;;;;;;;7.33;50.60;100926.55;105515;1259;62533;-58
2024/02/26 03:42:06;;;;;;;6.80;2.30;;;;;;;7.40;50.59;100927.39;105503;1254;60466;-58
2024/02/26 03:44:34;;;;;;;6.50;1.80;;;;;;;7.41;50.46;100929.22;105702;1256;60419;-60
2024/02/26 03:47:02;;;;;;;7.80;3.30;;;;;;;7.40;50.42;100930.34;105102;1253;67193;-62
2024/02/26 03:49:30;;;;;;;10.00;2.30;;;;;;;7.39;50.34;100926.58;105716;1255;61528;-61
2024/02/26 03:51:58;;;;;;;6.50;2.50;;;;;;;7.35;50.32;100930.45;105073;1254;64325;-61
2024/02/26 03:54:26;;;;;;;7.60;2.60;;;;;;;7.30;50.43;100937.88;105173;1254;60533;-62
2024/02/26 03:56:53;;;;;;;6.90;3.40;;;;;;;7.27;50.43;100937.38;105255;1253;60482;-61
2024/02/26 03:59:24;;;;;;;7.50;2.70;;;;;;;7.25;50.42;100933.80;105083;1259;65025;-62
2024/02/26 04:01:52;;;;;;;6.80;2.40;;;;;;;7.23;50.54;100927.98;105123;1255;61576;-61
2024/02/26 04:04:19;;;;;;;8.80;3.00;;;;;;;7.22;50.58;100920.03;105447;1261;63821;-63
2024/02/26 04:06:47;;;;;;;5.90;2.40;;;;;;;7.21;50.47;100918.01;105234;1253;60464;-62
2024/02/26 04:09:15;;;;;;;9.50;3.50;;;;;;;7.17;50.49;100913.85;105991;1259;60455;-63
2024/02/26 04:11:43;;;;;;;8.00;2.30;;;;;;;7.14;50.58;100911.09;105344;1253;63729;-62
2024/02/26 04:14:12;;;;;;;7.50;2.60;;;;;;;7.10;50.63;100908.52;105381;1256;62581;-62
2024/02/26 04:16:40;;;;;;;11.80;3.20;;;;;;;7.06;50.65;100905.80;105645;1259;63795;-60
2024/02/26 04:19:09;;;;;;;6.40;2.40;;;;;;;7.01;50.79;100906.20;105342;1257;60566;-60
2024/02/26 04:21:37;;;;;;;7.00;2.00;;;;;;;7.00;50.90;100909.60;105252;1253;60423;-60
2024/02/26 04:24:05;;;;;;;6.90;3.60;;;;;;;6.98;50.86;100907.61;105342;1258;65025;-62
2024/02/26 04:26:33;;;;;;;5.20;1.70;;;;;;;6.96;50.81;100904.97;106366;1253;61604;-61
2024/02/26 04:29:01;;;;;;;5.50;2.20;;;;;;;6.93;50.98;100905.30;105680;1259;63957;-60
2024/02/26 04:31:28;;;;;;;7.40;2.70;;;;;;;6.92;50.96;100902.73;105059;1259;60853;-59
2024/02/26 04:33:56;;;;;;;8.00;2.70;;;;;;;6.89;51.00;100897.98;105763;1255;60621;-60
2024/02/26 04:36:25;;;;;;;7.80;3.70;;;;;;;6.86;51.07;100894.84;105027;1260;65031;-60
2024/02/26 04:38:55;;;;;;;8.00;2.50;;;;;;;6.83;51.11;100894.33;107344;1253;61875;-61
2024/02/26 04:41:25;;;;;;;6.20;2.40;;;;;;;6.78;51.21;100892.34;105193;1255;64222;-61
2024/02/26 04:43:53;;;;;;;8.70;2.40;;;;;;;6.75;51.30;100887.98;105223;1254;60603;-60
2024/02/26 04:46:21;;;;;;;5.60;1.90;;;;;;;6.72;51.37;100889.36;105922;1254;60549;-60
2024/02/26 04:48:49;;;;;;;13.20;4.40;;;;;;;6.70;51.43;100884.41;106132;1253;63774;-57
2024/02/26 04:51:18;;;;;;;7.70;2.10;;;;;;;6.71;51.54;100883.31;105354;1256;60458;-57
2024/02/26 04:53:46;;;;;;;7.50;2.40;;;;;;;6.71;51.54;100884.55;105117;1259;63801;-59
2024/02/26 04:56:14;;;;;;;7.00;3.20;;;;;;;6.74;51.51;100879.66;105090;1253;60595;-58
2024/02/26 04:58:41;;;;;;;8.90;2.00;;;;;;;6.79;51.36;100876.77;105143;1253;60420;-59
2024/02/26 05:01:10;;;;;;;6.80;2.20;;;;;;;6.85;51.36;100876.09;105046;1260;65412;-59
2024/02/26 05:03:38;;;;;;;12.10;5.30;;;;;;;6.94;51.28;100875.77;105368;1253;61767;-59
2024/02/26 05:06:06;;;;;;;8.50;2.30;;;;;;;7.00;51.19;100879.09;106264;1256;62630;-59
2024/02/26 05:08:35;;;;;;;5.30;1.80;;;;;;;7.02;51.13;100880.33;105125;1255;60625;-59
2024/02/26 05:11:03;;;;;;;12.10;2.70;;;;;;;7.01;51.05;100880.73;104898;1255;60623;-60
2024/02/26 05:13:32;;;;;;;8.40;2.20;;;;;;;7.00;51.05;100885.34;106420;1253;63711;-57
2024/02/26 05:16:00;;;;;;;10.30;5.80;;;;;;;6.99;50.95;100884.71;106355;1259;60680;-61
2024/02/26 05:18:27;;;;;;;11.80;3.10;;;;;;;6.98;50.92;100891.21;105019;1253;65776;-59
2024/02/26 05:20:56;;;;;;;10.60;3.40;;;;;;;6.98;51.07;100894.20;105471;1258;60474;-57
2024/02/26 05:23:23;;;;;;;9.20;3.20;;;;;;;6.98;51.11;100897.53;105296;1253;60426;-58
2024/02/26 05:25:51;;;;;;;6.20;2.50;;;;;;;6.97;51.01;100896.19;105042;1259;65011;-60
2024/02/26 05:28:20;;;;;;;6.00;2.30;;;;;;;6.94;50.94;100894.10;104998;1253;61425;-60
2024/02/26 05:30:48;;;;;;;10.30;3.00;;;;;;;6.89;50.98;100895.25;104992;1256;62529;-58
2024/02/26 05:33:16;;;;;;;6.80;2.30;;;;;;;6.85;51.12;100899.26;105088;1256;60640;-58
2024/02/26 05:35:45;;;;;;;8.60;3.30;;;;;;;6.82;51.19;100904.85;105200;1253;60627;-59
2024/02/26 05:38:13;;;;;;;6.30;2.50;;;;;;;6.80;51.23;100911.76;105020;1253;65417;-59
2024/02/26 05:40:41;;;;;;;7.00;2.80;;;;;;;6.80;51.41;100918.76;105126;1259;60436;-59
2024/02/26 05:43:08;;;;;;;7.90;3.50;;;;;;;6.82;51.53;100916.73;105055;1255;63849;-57
2024/02/26 05:45:36;;;;;;;6.90;3.10;;;;;;;6.84;51.44;100920.79;105019;1259;60498;-58
2024/02/26 05:48:04;;;;;;;7.50;3.40;;;;;;;6.83;51.50;100921.16;105078;1253;60579;-58
2024/02/26 05:50:32;;;;;;;8.50;3.20;;;;;;;6.81;51.59;100920.28;105394;1259;65376;-60
2024/02/26 05:53:00;;;;;;;10.20;3.90;;;;;;;6.79;51.62;100920.35;104858;1256;61793;-56
2024/02/26 05:55:28;;;;;;;8.90;2.90;;;;;;;6.80;51.65;100926.75;104881;1256;64484;-53
2024/02/26 05:57:55;;;;;;;7.50;3.40;;;;;;;6.80;51.66;100927.09;105125;1254;60544;-60
2024/02/26 06:00:23;;;;;;;7.90;3.40;;;;;;;6.79;51.64;100936.05;104948;1259;60426;-57
2024/02/26 06:02:51;;;;;;;10.30;2.50;;;;;;;6.77;51.70;100939.46;105055;1259;65092;-58
2024/02/26 06:05:19;;;;;;;8.10;3.40;;;;;;;6.76;51.74;100941.44;105821;1253;61553;-58
2024/02/26 06:07:47;;;;;;;15.30;4.90;;;;;;;6.75;51.77;100938.00;105273;1256;63821;-58
2024/02/26 06:10:15;;;;;;;7.80;3.10;;;;;;;6.76;51.80;100944.76;105171;1253;60554;-59
2024/02/26 06:12:43;;;;;;;8.70;2.70;;;;;;;6.82;51.78;100949.30;105055;1259;60997;-59
2024/02/26 06:15:11;;;;;;;8.70;3.10;;;;;;;6.93;51.60;100956.55;104953;1259;63811;-60
2024/02/26 06:17:39;;;;;;;10.20;2.70;;;;;;;7.02;51.46;100955.69;105030;1258;61540;-59
2024/02/26 06:20:11;;;;;;;6.50;2.40;;;;;;;7.12;51.28;100958.31;105072;1254;63792;-60
2024/02/26 06:22:42;;;;;;;13.30;7.20;;;;;;;7.19;51.27;100957.02;105539;1255;60592;-60
2024/02/26 06:25:10;;;;;;;7.10;2.60;;;;;;;7.25;51.19;100960.34;105246;1253;60531;-58
2024/02/26 06:27:38;;;;;;;7.40;3.20;;;;;;;7.28;50.96;100959.52;105130;1259;65671;-58
2024/02/26 06:30:08;;;;;;;7.50;2.70;;;;;;;7.27;50.73;100954.84;105251;1255;61517;-59
2024/02/26 06:32:36;;;;;;;8.70;3.90;;;;;;;7.23;50.68;100954.02;105580;1259;63826;-57
2024/02/26 06:35:07;;;;;;;8.90;3.50;;;;;;;7.20;50.76;100951.92;105212;1259;60565;-62
2024/02/26 06:37:36;;;;;;;11.90;3.40;;;;;;;7.18;50.64;100955.48;105223;1254;60365;-58
2024/02/26 06:40:06;;;;;;;14.40;8.10;;;;;;;7.17;50.65;100960.64;105184;1259;65045;-60
2024/02/26 06:42:33;;;;;;;8.10;3.50;;;;;;;7.15;50.65;100963.36;105569;1253;61641;-59
2024/02/26 06:45:01;;;;;;;7.60;3.80;;;;;;;7.15;50.66;100959.52;105155;1256;64251;-58
2024/02/26 06:47:29;;;;;;;7.40;4.10;;;;;;;7.16;50.76;100959.98;105126;1259;60583;-59
2024/02/26 06:49:58;;;;;;;12.00;3.60;;;;;;;7.19;50.83;100960.70;105190;1261;62917;-57
2024/02/26 06:52:26;;;;;;;8.90;3.50;;;;;;;7.23;50.87;100961.52;105044;1259;65841;-60
2024/02/26 06:54:53;;;;;;;13.50;4.30;;;;;;;7.25;50.87;100958.61;106895;1256;60452;-58
2024/02/26 06:57:21;;;;;;;6.30;2.60;;;;;;;7.29;50.88;100961.56;105010;1255;63946;-60
2024/02/26 06:59:49;;;;;;;8.50;2.80;;;;;;;7.33;50.81;100963.90;105196;1258;60550;-56
2024/02/26 07:02:17;;;;;;;15.10;7.80;;;;;;;7.36;50.71;100962.68;105131;1253;60747;-59
2024/02/26 07:04:45;;;;;;;5.80;2.40;;;;;;;7.40;50.75;100957.91;105008;1259;65020;-59
2024/02/26 07:07:13;;;;;;;9.40;3.60;;;;;;;7.44;50.67;100955.93;105026;1258;60445;-59
2024/02/26 07:09:42;;;;;;;9.10;3.50;;;;;;;7.50;50.55;100955.45;105117;1253;62502;-59
2024/02/26 07:12:09;;;;;;;21.90;8.50;;;;;;;7.54;50.46;100957.48;105346;1253;60355;-64
2024/02/26 07:14:37;;;;;;;9.60;4.80;;;;;;;7.59;50.38;100961.58;106114;1253;60326;-66
2024/02/26 07:17:05;;;;;;;11.60;3.30;;;;;;;7.64;50.21;100964.58;104834;1259;65604;-67
2024/02/26 07:19:33;;;;;;;8.90;2.70;;;;;;;7.68;50.19;100963.27;104846;1253;61505;-66
2024/02/26 07:22:01;;;;;;;13.50;7.90;;;;;;;7.72;50.20;100958.35;104936;1255;63799;-61
2024/02/26 07:24:29;;;;;;;12.40;3.90;;;;;;;7.77;50.19;100956.81;106331;1259;60555;-70
2024/02/26 07:26:56;;;;;;;7.50;2.90;;;;;;;7.82;50.06;100956.20;107283;1253;59277;-68
2024/02/26 07:29:25;;;;;;;10.80;4.10;;;;;;;7.85;49.99;100955.66;105155;1253;66940;-56
2024/02/26 07:31:52;;;;;;;7.80;3.20;;;;;;;7.86;49.91;100954.75;105015;1253;61520;-63
2024/02/26 07:34:20;;;;;;;16.40;8.70;;;;;;;7.87;49.86;100953.79;104889;1254;62512;-70
2024/02/26 07:36:48;;;;;;;9.50;3.20;;;;;;;7.91;49.79;100949.75;105019;1259;60441;-65
2024/02/26 07:39:16;;;;;;;7.00;3.40;;;;;;;7.93;49.85;100951.36;105143;1253;62136;-65
2024/02/26 07:41:46;;;;;;;9.30;4.00;;;;;;;7.96;49.91;100947.29;105140;1253;63714;-67
2024/02/26 07:44:14;;;;;;;7.90;4.00;;;;;;;8.04;49.95;100944.23;105024;1254;64580;-63
2024/02/26 07:46:42;;;;;;;15.50;8.60;;;;;;;8.09;49.80;100939.92;105070;1256;62618;-66
2024/02/26 07:49:09;;;;;;;8.80;3.50;;;;;;;8.12;49.72;100942.14;105058;1258;60465;-56
2024/02/26 07:51:37;;;;;;;9.20;3.10;;;;;;;8.16;49.63;100945.37;105029;1259;60505;-60
2024/02/26 07:54:05;;;;;;;16.60;9.00;;;;;;;8.20;49.66;100946.41;106394;1253;67242;-62
2024/02/26 07:56:33;;;;;;;13.00;3.00;;;;;;;8.21;49.59;100948.61;105140;1256;61866;-62
2024/02/26 07:59:00;;;;;;;11.60;3.60;;;;;;;8.22;49.48;100950.84;107137;1260;63102;-61
2024/02/26 08:01:31;;;;;;;10.10;3.80;;;;;;;8.22;49.59;100949.09;104867;1253;60502;-63
2024/02/26 08:03:59;;;;;;;9.10;3.00;;;;;;;8.22;49.69;100948.55;105011;1259;60352;-59
2024/02/26 08:06:27;;;;;;;8.50;3.90;;;;;;;8.23;49.80;100951.46;105112;1259;65034;-63
2024/02/26 08:08:55;;;;;;;14.20;8.30;;;;;;;8.25;49.85;100953.97;105198;1253;61431;-62
2024/02/26 08:11:22;;;;;;;8.20;3.40;;;;;;;8.28;49.85;100953.27;105808;1256;63969;-59
2024/02/26 08:13:50;;;;;;;13.20;3.20;;;;;;;8.35;49.72;100953.68;105169;1258;61789;-61
2024/02/26 08:16:18;;;;;;;11.80;4.00;;;;;;;8.45;49.52;100952.05;105076;1253;60655;-59
2024/02/26 08:18:46;;;;;;;15.00;8.20;;;;;;;8.55;49.39;100952.52;105344;1259;63767;-60
2024/02/26 08:21:14;;;;;;;7.10;2.30;;;;;;;8.62;49.34;100954.48;105099;1254;61494;-58
2024/02/26 08:23:45;;;;;;;14.80;7.20;;;;;;;8.66;49.26;100950.59;105164;1262;64007;-59
2024/02/26 08:26:13;;;;;;;13.60;3.60;;;;;;;8.68;49.16;100946.23;105276;1261;62658;-59
2024/02/26 08:28:41;;;;;;;15.50;8.30;;;;;;;8.71;49.01;100945.02;105372;1256;60640;-58
2024/02/26 08:31:09;;;;;;;6.80;2.90;;;;;;;8.72;49.05;100942.19;105208;1258;65033;-60
2024/02/26 08:33:37;;;;;;;14.80;8.20;;;;;;;8.73;49.04;100943.66;107142;1254;60509;-69
2024/02/26 08:36:06;;;;;;;8.10;3.50;;;;;;;8.74;49.01;100945.17;106380;1256;63850;-71
2024/02/26 08:38:35;;;;;;;13.70;7.80;;;;;;;8.79;49.05;100951.20;105123;1254;60391;-72
2024/02/26 08:41:04;;;;;;;13.10;3.10;;;;;;;8.84;49.11;100956.13;106450;1258;60393;-71
2024/02/26 08:43:32;;;;;;;15.10;8.70;;;;;;;8.89;49.04;100956.68;105358;1254;67690;-74
2024/02/26 08:46:00;;;;;;;8.10;3.60;;;;;;;8.93;49.10;100953.96;105927;1254;63420;-58
2024/02/26 08:48:29;;;;;;;10.70;3.30;;;;;;;8.97;49.06;100950.55;105774;1253;66448;-61
2024/02/26 08:50:57;;;;;;;14.80;8.30;;;;;;;9.00;48.84;100942.66;105994;1257;61101;-56
2024/02/26 08:53:26;;;;;;;9.50;4.20;;;;;;;9.00;48.73;100934.79;105139;1253;60582;-58
2024/02/26 08:56:08;;;;;;;10.00;3.40;;;;;;;9.01;48.71;100931.94;105444;1256;75717;-57
2024/02/26 08:58:36;;;;;;;16.20;7.80;;;;;;;9.05;48.70;100932.16;107156;1253;63567;-58
2024/02/26 09:01:05;;;;;;;6.00;2.20;;;;;;;9.15;48.57;100933.49;109021;1256;64862;-58
2024/02/26 09:03:33;;;;;;;11.00;6.70;;;;;;;9.22;48.36;100934.21;106442;1253;60445;-58
2024/02/26 09:06:02;;;;;;;7.50;3.20;;;;;;;9.30;48.33;100932.48;105059;1259;60292;-59
2024/02/26 09:08:30;;;;;;;15.40;7.50;;;;;;;9.37;48.29;100931.16;105613;1259;69228;-59
2024/02/26 09:10:58;;;;;;;9.60;3.20;;;;;;;9.43;48.21;100929.36;105780;1253;61542;-58
2024/02/26 09:13:26;;;;;;;14.30;6.80;;;;;;;9.45;48.03;100927.30;105100;1259;64050;-58
2024/02/26 09:15:55;;;;;;;6.90;3.20;;;;;;;9.45;47.81;100926.61;105189;1256;60535;-59
2024/02/26 09:18:23;;;;;;;13.20;7.30;;;;;;;9.46;48.07;100927.72;105152;1255;59567;-58
2024/02/26 09:20:54;;;;;;;9.70;3.20;;;;;;;9.52;47.92;100926.86;105995;1254;65002;-58
2024/02/26 09:23:22;;;;;;;17.50;9.00;;;;;;;9.54;47.76;100926.70;105242;1258;61055;-58
2024/02/26 09:25:50;;;;;;;8.10;2.70;;;;;;;9.54;47.58;100927.27;105209;1256;63840;-59
2024/02/26 09:28:18;;;;;;;12.90;8.30;;;;;;;9.51;47.54;100925.70;105184;1259;60597;-58
2024/02/26 09:30:46;;;;;;;9.00;3.20;;;;;;;9.47;47.57;100929.06;104957;1254;60932;-58
2024/02/26 09:33:14;;;;;;;15.50;8.50;;;;;;;9.46;47.62;100927.21;105070;1256;65239;-57
2024/02/26 09:35:44;;;;;;;7.80;3.30;;;;;;;9.47;47.46;100926.48;105307;1259;61520;-59
2024/02/26 09:38:11;;;;;;;12.90;8.30;;;;;;;9.46;47.47;100931.27;105464;1253;63816;-59
2024/02/26 09:40:40;;;;;;;9.30;4.10;;;;;;;9.46;47.46;100927.71;105220;1254;61752;-59
2024/02/26 09:43:07;;;;;;;15.40;7.50;;;;;;;9.49;47.49;100932.61;106420;1259;60406;-57
2024/02/26 09:45:35;;;;;;;9.40;3.40;;;;;;;9.54;47.49;100934.63;106904;1253;63772;-63
2024/02/26 09:48:04;;;;;;;13.30;8.20;;;;;;;9.60;47.57;100933.52;105618;1256;61486;-60
2024/02/26 09:50:32;;;;;;;9.60;3.70;;;;;;;9.66;47.48;100930.96;105562;1265;64125;-58
2024/02/26 09:53:02;;;;;;;13.20;7.50;;;;;;;9.73;47.30;100926.65;105242;1254;60424;-59
2024/02/26 09:55:30;;;;;;;7.70;2.90;;;;;;;9.78;47.13;100926.48;105541;1259;60350;-57
2024/02/26 09:57:58;;;;;;;11.70;7.10;;;;;;;9.83;46.92;100928.05;105056;1253;63705;-62
2024/02/26 10:00:26;;;;;;;6.60;3.20;;;;;;;9.89;46.96;100926.84;105269;1260;60501;-58
2024/02/26 10:02:56;;;;;;;15.00;7.80;;;;;;;9.93;46.98;100924.05;104995;1260;62506;-60
2024/02/26 10:05:24;;;;;;;11.00;4.60;;;;;;;9.98;46.86;100920.90;105712;1260;60457;-59
2024/02/26 10:07:52;;;;;;;17.20;7.70;;;;;;;10.04;46.91;100919.30;105288;1259;60527;-58
2024/02/26 10:10:20;;;;;;;6.60;2.60;;;;;;;10.10;46.66;100917.48;105195;1256;63725;-58
2024/02/26 10:12:48;;;;;;;12.40;7.90;;;;;;;10.12;46.42;100916.08;105002;1260;60549;-58
2024/02/26 10:15:16;;;;;;;9.30;3.30;;;;;;;10.19;46.38;100911.42;105033;1254;62678;-57
2024/02/26 10:17:43;;;;;;;14.60;8.10;;;;;;;10.24;46.20;100910.52;105167;1257;60540;-59
2024/02/26 10:20:14;;;;;;;14.00;7.30;;;;;;;10.28;45.89;100908.35;105199;1258;60479;-60
2024/02/26 10:22:42;;;;;;;8.60;3.40;;;;;;;10.29;45.80;100905.45;105441;1254;63711;-61
2024/02/26 10:25:10;;;;;;;15.00;7.90;;;;;;;10.31;45.81;100904.30;105240;1259;62182;-59
2024/02/26 10:27:40;;;;;;;13.20;6.80;;;;;;;10.32;45.82;100905.44;105242;1259;62583;-60
2024/02/26 10:30:21;;;;;;;8.80;3.50;;;;;;;10.37;45.82;100904.69;105394;1258;60416;-60
2024/02/26 10:32:49;;;;;;;14.20;7.30;;;;;;;10.44;45.74;100899.64;109078;1253;58282;-64
2024/02/26 10:35:20;;;;;;;8.40;3.70;;;;;;;10.49;45.45;100896.55;105220;1254;67192;-61
2024/02/26 10:37:49;;;;;;;11.20;6.70;;;;;;;10.49;45.39;100892.66;105250;1259;62803;-58
2024/02/26 10:40:19;;;;;;;14.30;7.40;;;;;;;10.50;45.37;100896.59;105903;1256;62567;-61
2024/02/26 10:42:47;;;;;;;7.20;3.40;;;;;;;10.55;45.50;100894.37;105309;1259;60636;-60
2024/02/26 10:45:15;;;;;;;12.50;6.90;;;;;;;10.58;45.31;100893.55;105209;1257;60383;-61
2024/02/26 10:47:43;;;;;;;12.60;7.30;;;;;;;10.64;45.42;100889.48;105120;1259;64997;-60
2024/02/26 10:50:12;;;;;;;7.20;3.10;;;;;;;10.70;45.30;100885.02;105328;1258;60414;-59
2024/02/26 10:52:40;;;;;;;10.70;6.80;;;;;;;10.75;45.10;100883.45;105399;1260;63878;-60
2024/02/26 10:55:09;;;;;;;12.60;7.30;;;;;;;10.79;45.00;100884.76;105219;1261;60518;-61
2024/02/26 10:57:39;;;;;;;12.10;6.50;;;;;;;10.82;45.03;100886.60;105415;1254;60910;-59
2024/02/26 11:03:03;;;;;;;9.70;3.70;;;;;;;10.58;45.58;100884.79;102082;1293;599532;-61
2024/02/26 11:05:33;;;;;;;12.70;6.90;;;;;;;10.96;45.00;100882.23;104524;1270;59370;-61
2024/02/26 11:08:02;;;;;;;14.20;7.80;;;;;;;11.09;44.78;100883.05;105436;1271;59501;-62
2024/02/26 11:10:30;;;;;;;10.60;6.50;;;;;;;11.16;44.75;100882.70;104686;1270;62123;-61
2024/02/26 11:12:59;;;;;;;11.50;7.30;;;;;;;11.16;44.57;100883.07;104124;1276;60305;-58
2024/02/26 11:15:28;;;;;;;12.80;6.90;;;;;;;11.17;44.29;100880.34;105020;1274;62554;-58
2024/02/26 11:17:56;;;;;;;8.40;2.90;;;;;;;11.19;44.27;100879.71;105737;1267;59322;-58
2024/02/26 11:20:24;;;;;;;11.40;6.40;;;;;;;11.24;44.34;100877.55;104950;1270;59295;-60
2024/02/26 11:22:52;;;;;;;13.70;7.00;;;;;;;11.30;44.11;100876.22;104501;1264;62108;-58
2024/02/26 11:25:20;;;;;;;16.20;7.20;;;;;;;11.35;44.15;100874.83;104801;1267;62607;-59
2024/02/26 11:27:51;;;;;;;13.30;6.80;;;;;;;11.38;44.24;100873.23;104387;1264;63969;-58
2024/02/26 11:30:19;;;;;;;9.40;2.90;;;;;;;11.40;44.00;100872.66;106287;1263;59767;-57